KCAE

Columbia Metropolitan Airport

Columbia, South Carolina, USA
METAR KCAE 151856Z 23010KT 10SM OVC027 18/12 A2987 RMK AO2 SLP113 T01780117
Observed Flight Rules
Feb-15 @ 18:56 UTC (23 minutes ago) Marginal Visual Flight Rules
Wind Visibility Clouds
230° at 10 knots 10 miles
  • Overcast at 2,700' AGL
Temperatures Readings
Current 18°C / 64°F
Dewpoint 12°C / 54°F
Humidity 68%
Altimeter 29.87" Hg
Pressure 1011.3 hPa
Elevation 70
METAR KCAE 151856Z 23010KT 10SM OVC027 18/12 A2987 RMK AO2 SLP113 T01780117
Observed Flight Rules
Feb-15 @ 18:56 UTC
(23 minutes ago)
MVFR
Wind Visibility
230° at 10 knots 10 miles
Clouds
  • Overcast at 2,700' AGL
Temperature Dewpoint
18°C / 64°F 12°C / 54°F
Humidity Altimeter Pressure
68% 29.87" Hg 1011.3 hPa